Terminal Aerodrome Forecast
Issued by NWS

Home | Current Version | Previous Version | Text Only | Print | Product List | Glossary On
Versions: 1 2 3 4 5 6 7 8 9 10 11 12 13 14 15 16
000
FTUS45 KRIW 230526
TAFRKS
TAF
KRKS 230526Z 2306/2406 06006KT P6SM -RA SCT014 OVC024
     FM231500 03011G17KT 6SM -SHRASN SCT014 OVC022
     FM232200 36015G25KT 3SM -SN OVC020
     FM240300 34014KT P6SM VCSH SCT020 BKN040=

USA.gov is the U.S. government's official web portal to all federal, state and local government web resources and services.